createdAt,value
2018-08-19T00:00:27.570Z,10.73
2018-08-19T00:02:58.972Z,10.97
2018-08-19T00:05:26.923Z,11.70
2018-08-19T00:07:54.914Z,11.60
2018-08-19T00:11:10.945Z,10.67
2018-08-19T00:13:39.055Z,11.50
2018-08-19T00:16:08.772Z,10.90
2018-08-19T00:18:37.045Z,10.37
2018-08-19T00:21:09.254Z,11.80
2018-08-19T00:23:42.642Z,11.47
2018-08-19T00:26:10.667Z,11.10
2018-08-19T00:28:38.362Z,10.93
2018-08-19T00:31:06.805Z,10.33
2018-08-19T00:33:34.867Z,10.67
2018-08-19T00:36:25.488Z,11.47
2018-08-19T00:38:54.159Z,11.37
2018-08-19T00:41:21.983Z,11.83
2018-08-19T00:43:49.756Z,12.03
2018-08-19T00:46:27.398Z,11.40
2018-08-19T00:48:55.561Z,12.50
2018-08-19T00:51:23.297Z,12.87
2018-08-19T00:53:51.202Z,12.23
2018-08-19T00:56:18.947Z,11.60
2018-08-19T00:58:46.667Z,12.57
2018-08-19T01:01:30.360Z,12.77
2018-08-19T01:03:58.847Z,11.27
2018-08-19T01:06:26.890Z,11.97
2018-08-19T01:08:54.710Z,12.20
2018-08-19T01:11:31.731Z,12.07
2018-08-19T01:13:59.610Z,12.03
2018-08-19T01:16:27.330Z,12.43
2018-08-19T01:18:58.514Z,12.47
2018-08-19T01:21:27.551Z,12.37
2018-08-19T01:23:56.164Z,12.20
2018-08-19T01:26:23.904Z,13.10
2018-08-19T01:28:56.322Z,13.10
2018-08-19T01:31:25.852Z,13.03
2018-08-19T01:33:53.699Z,13.03
2018-08-19T01:36:21.484Z,13.60
2018-08-19T01:38:49.649Z,13.67
2018-08-19T01:41:17.570Z,12.53
2018-08-19T01:44:06.089Z,12.47
2018-08-19T01:46:37.085Z,12.30
2018-08-19T01:49:06.628Z,12.90
2018-08-19T01:51:37.328Z,12.60
2018-08-19T01:54:09.515Z,12.93
2018-08-19T01:56:37.372Z,12.77
2018-08-19T01:59:05.715Z,13.80
2018-08-19T02:01:46.498Z,12.70
2018-08-19T02:04:14.225Z,13.07
2018-08-19T02:06:42.941Z,12.90
2018-08-19T02:09:14.015Z,13.73
2018-08-19T02:11:45.279Z,13.20
2018-08-19T02:14:13.787Z,13.40
2018-08-19T02:16:41.686Z,13.77
2018-08-19T02:19:10.140Z,13.60
2018-08-19T02:21:38.001Z,12.97
2018-08-19T02:24:06.352Z,13.37
2018-08-19T02:26:34.159Z,13.47
2018-08-19T02:29:07.444Z,14.13
2018-08-19T02:31:35.140Z,13.87
2018-08-19T02:34:03.072Z,15.30
2018-08-19T02:36:30.917Z,13.03
2018-08-19T02:38:58.677Z,14.40
2018-08-19T02:41:26.469Z,14.70
2018-08-19T02:43:55.190Z,14.70
2018-08-19T02:46:22.943Z,14.93
2018-08-19T02:48:50.727Z,14.67
2018-08-19T02:51:19.724Z,15.23
2018-08-19T02:53:48.769Z,15.50
2018-08-19T02:56:17.326Z,14.73
2018-08-19T02:58:46.015Z,15.70
2018-08-19T03:01:14.852Z,15.47
2018-08-19T03:03:42.604Z,15.03
2018-08-19T03:06:10.503Z,14.37
2018-08-19T03:08:47.187Z,15.53
2018-08-19T03:11:17.813Z,14.60
2018-08-19T03:13:45.609Z,15.87
2018-08-19T03:16:13.396Z,15.30
2018-08-19T03:18:41.156Z,15.03
2018-08-19T03:21:08.898Z,14.93
2018-08-19T03:23:36.607Z,14.87
2018-08-19T03:26:04.876Z,14.80
2018-08-19T03:28:32.625Z,15.17
2018-08-19T03:31:01.841Z,14.27
2018-08-19T03:33:30.175Z,13.87
2018-08-19T03:35:58.139Z,13.37
2018-08-19T03:38:26.947Z,14.63
2018-08-19T03:40:55.883Z,12.77
2018-08-19T03:43:23.907Z,13.43
2018-08-19T03:45:51.756Z,12.93
2018-08-19T03:48:19.491Z,13.47
2018-08-19T03:50:47.270Z,11.93
2018-08-19T03:53:14.934Z,11.53
2018-08-19T03:55:42.676Z,12.70
2018-08-19T03:58:11.250Z,12.80
2018-08-19T04:00:42.404Z,13.47
2018-08-19T04:03:18.172Z,13.63
2018-08-19T04:05:50.547Z,13.87
2018-08-19T04:08:18.247Z,12.70
2018-08-19T04:10:46.871Z,13.23
2018-08-19T04:13:29.291Z,12.93
2018-08-19T04:15:58.859Z,12.13
2018-08-19T04:18:32.115Z,11.03
2018-08-19T04:21:04.018Z,12.07
2018-08-19T04:23:32.187Z,12.77
2018-08-19T04:26:01.075Z,12.83
2018-08-19T04:28:28.856Z,12.50
2018-08-19T04:30:57.116Z,11.77
2018-08-19T04:33:31.875Z,12.17
2018-08-19T04:36:00.223Z,11.60
2018-08-19T04:38:29.107Z,11.33
2018-08-19T04:40:58.519Z,11.40
2018-08-19T04:43:27.954Z,11.37
2018-08-19T04:45:55.882Z,11.03
2018-08-19T04:48:25.119Z,11.83
2018-08-19T04:50:54.376Z,11.00
2018-08-19T04:53:22.094Z,10.33
2018-08-19T04:55:50.640Z,10.73
2018-08-19T04:58:18.483Z,11.27
2018-08-19T05:00:46.246Z,10.50
2018-08-19T05:03:13.971Z,11.43
2018-08-19T05:05:41.809Z,11.10
2018-08-19T05:08:11.183Z,10.33
2018-08-19T05:10:39.016Z,11.10
2018-08-19T05:13:07.703Z,10.60
2018-08-19T05:15:36.385Z,9.80
2018-08-19T05:18:04.138Z,11.17
2018-08-19T05:20:32.152Z,10.77
2018-08-19T05:22:59.877Z,11.43
2018-08-19T05:25:27.609Z,9.97
2018-08-19T05:28:01.123Z,10.10
2018-08-19T05:30:28.881Z,10.63
2018-08-19T05:33:01.742Z,9.93
2018-08-19T05:35:30.573Z,9.80
2018-08-19T05:37:59.802Z,9.73
2018-08-19T05:40:27.811Z,9.70
2018-08-19T05:42:55.705Z,9.20
2018-08-19T05:45:23.591Z,9.23
2018-08-19T05:48:07.315Z,8.77
2018-08-19T05:50:35.519Z,7.90
2018-08-19T05:53:03.455Z,7.00
2018-08-19T05:55:31.259Z,7.43
2018-08-19T05:57:58.996Z,7.80
2018-08-19T06:00:27.287Z,7.20
2018-08-19T06:02:58.172Z,7.27
2018-08-19T06:05:26.471Z,7.87
2018-08-19T06:08:00.123Z,7.43
2018-08-19T06:10:27.918Z,6.97
2018-08-19T06:12:57.026Z,6.13
2018-08-19T06:15:25.871Z,5.90
2018-08-19T06:17:53.600Z,6.07
2018-08-19T06:20:21.490Z,4.97
2018-08-19T06:22:49.823Z,4.87
2018-08-19T06:25:17.575Z,5.23
2018-08-19T06:27:47.484Z,5.80
2018-08-19T06:30:16.451Z,5.20
2018-08-19T06:32:44.331Z,6.00
2018-08-19T06:35:12.255Z,5.50
2018-08-19T06:37:40.020Z,5.33
2018-08-19T06:40:12.028Z,5.60
2018-08-19T06:42:39.880Z,5.00
2018-08-19T06:45:09.013Z,4.97
2018-08-19T06:47:36.944Z,5.10
2018-08-19T06:50:24.008Z,4.90
2018-08-19T06:52:52.443Z,4.87
2018-08-19T06:55:21.753Z,5.07
2018-08-19T06:57:49.509Z,4.63
2018-08-19T07:00:24.236Z,4.80
2018-08-19T07:02:54.281Z,4.73
2018-08-19T07:05:23.559Z,4.93
2018-08-19T07:07:52.212Z,4.77
2018-08-19T07:10:27.935Z,4.63
2018-08-19T07:13:01.507Z,4.93
2018-08-19T07:15:29.380Z,4.77
2018-08-19T07:17:57.792Z,4.97
2018-08-19T07:20:25.856Z,4.67
2018-08-19T07:22:53.921Z,4.77
2018-08-19T07:25:21.729Z,4.80
2018-08-19T07:27:49.424Z,5.00
2018-08-19T07:30:17.253Z,4.80
2018-08-19T07:32:45.195Z,4.57
2018-08-19T07:35:12.999Z,4.40
2018-08-19T07:37:40.895Z,4.37
2018-08-19T07:40:08.627Z,4.30
2018-08-19T07:42:36.379Z,4.20
2018-08-19T07:45:04.423Z,4.27
2018-08-19T07:47:32.220Z,4.47
2018-08-19T07:50:00.138Z,4.50
2018-08-19T07:52:27.952Z,4.20
2018-08-19T07:54:56.015Z,4.20
2018-08-19T07:57:27.743Z,4.40
2018-08-19T07:59:55.841Z,4.20
2018-08-19T08:02:29.748Z,3.87
2018-08-19T08:04:57.620Z,4.20
2018-08-19T08:07:28.798Z,3.77
2018-08-19T08:09:57.074Z,3.93
2018-08-19T08:12:24.879Z,3.70
2018-08-19T08:14:53.554Z,4.07
2018-08-19T08:17:22.593Z,3.62
2018-08-19T08:19:56.072Z,3.75
2018-08-19T08:22:27.515Z,3.98
2018-08-19T08:24:55.915Z,3.90
2018-08-19T08:27:23.671Z,4.27
2018-08-19T08:29:51.475Z,4.00
2018-08-19T08:32:19.161Z,3.80
2018-08-19T08:34:46.935Z,4.10
2018-08-19T08:37:14.784Z,3.57
2018-08-19T08:39:42.462Z,4.10
2018-08-19T08:42:10.185Z,3.93
2018-08-19T08:44:37.960Z,3.77
2018-08-19T08:47:08.904Z,3.80
2018-08-19T08:49:42.307Z,3.73
2018-08-19T08:52:16.511Z,3.60
2018-08-19T08:54:50.043Z,3.65
2018-08-19T08:57:18.916Z,3.45
2018-08-19T08:59:46.663Z,3.95
2018-08-19T09:02:14.411Z,3.30
2018-08-19T09:04:42.281Z,3.20
2018-08-19T09:07:10.007Z,3.30
2018-08-19T09:09:40.371Z,3.60
2018-08-19T09:12:08.390Z,3.27
2018-08-19T09:14:36.193Z,3.47
2018-08-19T09:17:03.945Z,3.20
2018-08-19T09:19:31.938Z,3.80
2018-08-19T09:21:59.675Z,5.25
2018-08-19T09:24:27.336Z,3.52
2018-08-19T09:26:55.315Z,3.37
2018-08-19T09:29:23.176Z,3.15
2018-08-19T09:31:51.174Z,3.77
2018-08-19T09:34:19.011Z,3.85
2018-08-19T09:36:46.677Z,3.60
2018-08-19T09:39:14.389Z,3.30
2018-08-19T09:41:42.529Z,3.75
2018-08-19T09:44:10.208Z,3.60
2018-08-19T09:46:37.971Z,3.52
2018-08-19T09:49:05.691Z,3.50
2018-08-19T09:51:33.416Z,3.00
2018-08-19T09:54:01.135Z,3.17
2018-08-19T09:56:34.511Z,3.05
2018-08-19T09:59:05.131Z,3.40
2018-08-19T10:02:57.873Z,3.80
2018-08-19T10:05:25.598Z,3.90
2018-08-19T10:07:54.739Z,3.42
2018-08-19T10:10:23.452Z,3.75
2018-08-19T10:12:51.395Z,5.83
2018-08-19T10:15:19.370Z,3.65
2018-08-19T10:17:47.184Z,3.60
2018-08-19T10:20:14.889Z,4.00
2018-08-19T10:22:42.995Z,3.45
2018-08-19T10:25:18.671Z,3.67
2018-08-19T10:27:48.827Z,3.72
2018-08-19T10:30:17.513Z,3.67
2018-08-19T10:32:49.258Z,3.70
2018-08-19T10:35:18.047Z,4.03
2018-08-19T10:37:46.636Z,3.90
2018-08-19T10:40:14.401Z,3.80
2018-08-19T10:42:42.168Z,4.13
2018-08-19T10:45:15.868Z,3.83
2018-08-19T10:47:43.633Z,3.95
2018-08-19T10:50:11.407Z,3.80
2018-08-19T10:52:40.892Z,3.72
2018-08-19T10:55:10.540Z,3.80
2018-08-19T10:57:39.072Z,3.60
2018-08-19T11:00:16.883Z,3.35
2018-08-19T11:02:44.823Z,3.33
2018-08-19T11:05:12.600Z,3.30
2018-08-19T11:12:34.040Z,4.00
2018-08-19T11:15:02.087Z,4.60
2018-08-19T11:17:29.797Z,3.55
2018-08-19T11:19:57.615Z,3.72
2018-08-19T11:22:25.443Z,3.80
2018-08-19T11:24:53.282Z,3.97
2018-08-19T11:27:23.196Z,4.50
2018-08-19T11:29:51.203Z,4.30
2018-08-19T11:32:50.223Z,5.10
2018-08-19T11:35:18.269Z,4.37
2018-08-19T11:37:46.087Z,4.20
2018-08-19T11:40:13.800Z,4.33
2018-08-19T11:42:41.753Z,4.47
2018-08-19T11:45:09.442Z,4.63
2018-08-19T11:47:37.448Z,4.27
2018-08-19T11:50:05.681Z,4.40
2018-08-19T11:52:33.504Z,4.43
2018-08-19T11:55:01.207Z,4.47
2018-08-19T11:57:29.042Z,4.40
2018-08-19T11:59:56.746Z,4.50
2018-08-19T12:02:24.678Z,4.10
2018-08-19T12:04:52.463Z,4.40
2018-08-19T12:07:20.619Z,4.50
2018-08-19T12:09:55.424Z,4.20
2018-08-19T12:12:43.207Z,4.47
2018-08-19T12:15:11.101Z,4.50
2018-08-19T12:17:38.880Z,4.50
2018-08-19T12:20:06.951Z,4.90
2018-08-19T12:22:34.891Z,4.20
2018-08-19T12:25:03.041Z,4.90
2018-08-19T12:27:31.077Z,6.50
2018-08-19T12:30:04.933Z,4.27
2018-08-19T12:32:32.860Z,4.73
2018-08-19T12:35:01.190Z,4.30
2018-08-19T12:37:30.524Z,4.70
2018-08-19T12:39:58.920Z,4.33
2018-08-19T12:42:27.417Z,4.40
2018-08-19T12:45:02.224Z,4.93
2018-08-19T12:47:30.064Z,4.40
2018-08-19T12:50:01.036Z,4.03
2018-08-19T12:52:30.244Z,4.40
2018-08-19T12:55:02.427Z,4.60
2018-08-19T12:57:30.251Z,4.47
2018-08-19T13:00:03.205Z,4.33
2018-08-19T13:02:32.185Z,4.60
2018-08-19T13:04:59.925Z,4.30
2018-08-19T13:07:27.620Z,4.43
2018-08-19T13:09:55.388Z,4.60
2018-08-19T13:12:23.068Z,6.87
2018-08-19T13:14:50.868Z,4.10
2018-08-19T13:17:18.571Z,4.03
2018-08-19T13:20:19.607Z,4.13
2018-08-19T13:22:53.367Z,4.47
2018-08-19T13:25:22.304Z,4.20
2018-08-19T13:27:50.084Z,5.50
2018-08-19T13:30:19.202Z,4.37
2018-08-19T13:32:47.495Z,4.37
2018-08-19T13:35:15.309Z,4.50
2018-08-19T13:37:43.024Z,4.47
2018-08-19T13:40:11.902Z,4.30
2018-08-19T13:42:39.974Z,4.70
2018-08-19T13:45:17.000Z,4.77
2018-08-19T13:47:46.251Z,4.90
2018-08-19T13:50:14.195Z,4.43
2018-08-19T13:52:42.365Z,4.43
2018-08-19T13:55:12.225Z,4.40
2018-08-19T13:57:40.084Z,4.20
2018-08-19T14:00:12.707Z,4.40
2018-08-19T14:02:40.467Z,4.17
2018-08-19T14:05:08.235Z,5.00
2018-08-19T14:07:35.924Z,4.90
2018-08-19T14:10:05.121Z,14.50
2018-08-19T14:12:32.985Z,4.67
2018-08-19T14:15:00.728Z,4.80
2018-08-19T14:17:28.539Z,4.73
2018-08-19T14:19:56.379Z,5.13
2018-08-19T14:22:24.181Z,4.87
2018-08-19T14:24:51.891Z,4.40
2018-08-19T14:27:20.037Z,4.97
2018-08-19T14:29:47.775Z,4.87
2018-08-19T14:33:53.655Z,10.57
2018-08-19T14:36:21.503Z,6.90
2018-08-19T14:38:49.203Z,4.83
2018-08-19T14:41:17.147Z,4.90
2018-08-19T14:44:00.324Z,4.97
2018-08-19T14:46:29.088Z,4.77
2018-08-19T14:48:58.095Z,4.80
2018-08-19T14:51:27.269Z,4.70
2018-08-19T14:54:19.793Z,4.80
2018-08-19T14:56:47.601Z,4.60
2018-08-19T14:59:15.632Z,4.60
2018-08-19T15:01:43.915Z,5.63
2018-08-19T15:04:14.999Z,4.93
2018-08-19T15:06:43.844Z,4.60
2018-08-19T15:09:33.467Z,4.43
2018-08-19T15:12:13.632Z,4.60
2018-08-19T15:14:42.139Z,4.90
2018-08-19T15:17:10.628Z,5.27
2018-08-19T15:19:42.827Z,4.33
2018-08-19T15:22:10.523Z,4.67
2018-08-19T15:24:38.264Z,4.70
2018-08-19T15:27:06.077Z,4.57
2018-08-19T15:29:34.105Z,4.80
2018-08-19T15:32:03.179Z,4.10
2018-08-19T15:34:30.747Z,4.50
2018-08-19T15:36:58.568Z,6.30
2018-08-19T15:39:26.379Z,4.30
2018-08-19T15:41:54.094Z,4.73
2018-08-19T15:44:21.911Z,4.33
2018-08-19T15:46:49.741Z,4.50
2018-08-19T15:49:20.766Z,4.40
2018-08-19T15:51:48.547Z,4.40
2018-08-19T15:54:16.350Z,4.63
2018-08-19T15:56:44.024Z,4.63
2018-08-19T15:59:11.688Z,4.67
2018-08-19T16:01:39.775Z,4.70
2018-08-19T16:04:14.388Z,4.57
2018-08-19T16:06:44.399Z,4.30
2018-08-19T16:09:15.004Z,4.23
2018-08-19T16:11:50.137Z,4.40
2018-08-19T16:14:23.960Z,4.17
2018-08-19T16:16:52.761Z,4.00
2018-08-19T16:19:20.723Z,4.30
2018-08-19T16:21:50.761Z,4.50
2018-08-19T16:24:18.827Z,4.10
2018-08-19T16:26:46.620Z,3.97
2018-08-19T16:29:14.305Z,4.43
2018-08-19T16:31:42.422Z,4.30
2018-08-19T16:34:10.213Z,4.67
2018-08-19T16:36:37.991Z,4.40
2018-08-19T16:39:08.349Z,4.30
2018-08-19T16:41:36.287Z,4.60
2018-08-19T16:44:04.747Z,4.50
2018-08-19T16:46:32.506Z,4.50
2018-08-19T16:49:00.445Z,4.33
2018-08-19T16:51:28.423Z,4.50
2018-08-19T16:53:56.172Z,4.33
2018-08-19T16:56:24.019Z,4.50
2018-08-19T16:58:51.730Z,4.33
2018-08-19T17:01:19.467Z,4.57
2018-08-19T17:03:47.147Z,4.50
2018-08-19T17:06:15.512Z,4.53
2018-08-19T17:08:43.546Z,4.13
2018-08-19T17:11:13.462Z,4.70
2018-08-19T17:13:41.322Z,4.60
2018-08-19T17:16:09.752Z,4.33
2018-08-19T17:18:37.447Z,5.13
2018-08-19T17:21:05.947Z,5.00
2018-08-19T17:23:33.911Z,4.70
2018-08-19T17:26:03.749Z,4.30
2018-08-19T17:28:31.491Z,4.83
2018-08-19T17:30:59.314Z,5.43
2018-08-19T17:33:29.670Z,4.33
2018-08-19T17:35:57.619Z,6.27
2018-08-19T17:38:32.887Z,4.67
2018-08-19T17:41:01.132Z,4.60
2018-08-19T17:43:34.575Z,4.13
2018-08-19T17:46:06.576Z,4.33
2018-08-19T17:48:36.211Z,4.53
2018-08-19T17:51:21.373Z,4.47
2018-08-19T17:53:49.064Z,4.30
2018-08-19T17:56:16.921Z,4.00
2018-08-19T17:58:44.771Z,4.90
2018-08-19T18:01:12.882Z,4.20
2018-08-19T18:03:41.195Z,5.00
2018-08-19T18:06:09.067Z,4.60
2018-08-19T18:08:38.943Z,4.20
2018-08-19T18:11:07.643Z,4.27
2018-08-19T18:13:35.659Z,4.23
2018-08-19T18:16:03.401Z,4.43
2018-08-19T18:18:31.659Z,4.43
2018-08-19T18:21:02.723Z,4.43
2018-08-19T18:23:30.748Z,4.53
2018-08-19T18:25:58.533Z,4.47
2018-08-19T18:28:28.299Z,4.40
2018-08-19T18:31:12.055Z,4.70
2018-08-19T18:33:53.398Z,4.70
2018-08-19T18:36:22.276Z,4.80
2018-08-19T18:38:50.240Z,8.33
2018-08-19T18:41:25.281Z,15.53
2018-08-19T18:43:54.888Z,5.30
2018-08-19T18:46:23.138Z,4.83
2018-08-19T18:49:00.976Z,4.87
2018-08-19T18:51:29.760Z,5.13
2018-08-19T18:53:57.695Z,4.73
2018-08-19T18:56:26.692Z,4.93
2018-08-19T18:58:54.533Z,5.03
2018-08-19T19:01:22.261Z,4.77
2018-08-19T19:03:49.984Z,4.77
2018-08-19T19:06:17.892Z,5.17
2018-08-19T19:08:45.696Z,5.00
2018-08-19T19:11:13.568Z,5.10
2018-08-19T19:13:41.278Z,5.00
2018-08-19T19:16:09.043Z,4.47
2018-08-19T19:18:36.824Z,5.03
2018-08-19T19:21:05.487Z,4.97
2018-08-19T19:26:35.550Z,5.07
2018-08-19T19:29:08.751Z,5.27
2018-08-19T19:31:36.752Z,5.67
2018-08-19T19:34:10.157Z,6.10
2018-08-19T19:36:37.919Z,5.67
2018-08-19T19:39:05.867Z,5.60
2018-08-19T19:41:34.429Z,5.87
2018-08-19T19:44:22.360Z,5.43
2018-08-19T19:46:50.412Z,5.33
2018-08-19T19:49:22.165Z,6.43
2018-08-19T19:51:54.515Z,6.00
2018-08-19T19:54:22.203Z,5.93
2018-08-19T19:56:50.060Z,5.90
2018-08-19T19:59:17.795Z,6.00
2018-08-19T20:01:47.567Z,5.47
2018-08-19T20:04:15.521Z,5.73
2018-08-19T20:06:43.752Z,5.87
2018-08-19T20:09:11.638Z,6.03
2018-08-19T20:11:39.489Z,6.07
2018-08-19T20:14:07.358Z,5.70
2018-08-19T20:16:35.168Z,6.47
2018-08-19T20:19:03.092Z,5.70
2018-08-19T20:21:34.393Z,6.30
2018-08-19T20:24:02.430Z,5.53
2018-08-19T20:26:30.169Z,5.63
2018-08-19T20:28:59.690Z,5.87
2018-08-19T20:31:27.396Z,6.03
2018-08-19T20:33:55.313Z,6.33
2018-08-19T20:36:23.038Z,6.00
2018-08-19T20:38:50.791Z,6.20
2018-08-19T20:41:18.544Z,6.20
2018-08-19T20:43:46.266Z,6.17
2018-08-19T20:46:14.242Z,6.10
2018-08-19T20:48:41.897Z,6.50
2018-08-19T20:51:09.571Z,6.67
2018-08-19T20:53:37.229Z,6.67
2018-08-19T20:56:05.220Z,6.87
2018-08-19T20:58:32.927Z,6.40
2018-08-19T21:01:00.794Z,6.60
2018-08-19T21:03:28.469Z,6.10
2018-08-19T21:05:56.578Z,7.40
2018-08-19T21:08:24.242Z,7.00
2018-08-19T21:10:51.908Z,6.33
2018-08-19T21:13:20.140Z,7.30
2018-08-19T21:15:50.493Z,6.27
2018-08-19T21:18:18.157Z,6.70
2018-08-19T21:20:45.877Z,7.00
2018-08-19T21:23:13.510Z,7.27
2018-08-19T21:25:49.878Z,7.20
2018-08-19T21:28:18.355Z,6.70
2018-08-19T21:30:46.109Z,6.67
2018-08-19T21:33:14.010Z,6.20
2018-08-19T21:35:47.522Z,6.17
2018-08-19T21:38:15.184Z,8.03
2018-08-19T21:40:43.099Z,6.93
2018-08-19T21:43:10.986Z,5.90
2018-08-19T21:45:39.060Z,6.43
2018-08-19T21:48:14.034Z,6.70
2018-08-19T21:50:41.822Z,6.60
2018-08-19T21:53:12.389Z,6.70
2018-08-19T21:55:44.427Z,6.33
2018-08-19T21:58:12.217Z,6.10
2018-08-19T22:00:42.896Z,5.70
2018-08-19T22:03:17.975Z,5.80
2018-08-19T22:05:46.333Z,5.90
2018-08-19T22:08:14.005Z,6.20
2018-08-19T22:10:44.318Z,6.07
2018-08-19T22:13:12.294Z,5.80
2018-08-19T22:15:41.352Z,6.00
2018-08-19T22:18:11.527Z,6.07
2018-08-19T22:20:43.803Z,5.60
2018-08-19T22:23:11.520Z,5.80
2018-08-19T22:25:39.243Z,6.27
2018-08-19T22:28:06.891Z,5.80
2018-08-19T22:30:34.675Z,5.47
2018-08-19T22:33:02.851Z,5.17
2018-08-19T22:35:31.275Z,5.37
2018-08-19T22:38:03.670Z,5.00
2018-08-19T22:40:35.913Z,5.23
2018-08-19T22:43:04.484Z,5.20
2018-08-19T22:45:32.210Z,4.97
2018-08-19T22:48:00.214Z,5.53
2018-08-19T22:50:28.614Z,5.13
2018-08-19T22:52:56.352Z,4.70
2018-08-19T22:55:24.178Z,5.50
2018-08-19T22:57:57.512Z,5.70
2018-08-19T23:00:25.350Z,5.50
2018-08-19T23:02:53.615Z,5.00
2018-08-19T23:05:21.360Z,5.27
2018-08-19T23:07:49.080Z,5.60
2018-08-19T23:10:16.990Z,5.23
2018-08-19T23:12:45.163Z,5.07
2018-08-19T23:15:30.473Z,5.10
2018-08-19T23:17:58.207Z,5.27
2018-08-19T23:20:25.995Z,5.10
2018-08-19T23:22:53.867Z,4.53
2018-08-19T23:25:21.563Z,4.80
2018-08-19T23:27:50.139Z,5.27
2018-08-19T23:30:18.042Z,5.40
2018-08-19T23:32:45.827Z,5.10
2018-08-19T23:35:13.567Z,4.83
2018-08-19T23:37:41.288Z,5.03
2018-08-19T23:40:09.264Z,5.40
2018-08-19T23:42:37.015Z,5.20
2018-08-19T23:45:06.168Z,5.30
2018-08-19T23:47:33.969Z,5.17
2018-08-19T23:50:01.810Z,5.50
2018-08-19T23:52:29.520Z,4.70
2018-08-19T23:54:57.343Z,4.57
2018-08-19T23:57:25.054Z,5.13
2018-08-19T23:59:52.965Z,4.67
